createdAt,value
2019-05-19T00:01:02.449Z,14.73
2019-05-19T00:03:32.109Z,14.75
2019-05-19T00:06:01.926Z,14.70
2019-05-19T00:08:31.627Z,14.68
2019-05-19T00:11:07.230Z,14.67
2019-05-19T00:13:36.865Z,14.65
2019-05-19T00:16:06.681Z,14.58
2019-05-19T00:18:36.500Z,14.58
2019-05-19T00:21:08.467Z,14.55
2019-05-19T00:23:38.116Z,14.55
2019-05-19T00:26:07.898Z,14.53
2019-05-19T00:28:37.545Z,14.50
2019-05-19T00:31:07.179Z,14.49
2019-05-19T00:33:36.860Z,14.50
2019-05-19T00:36:06.680Z,14.50
2019-05-19T00:38:38.750Z,14.51
2019-05-19T00:41:08.914Z,14.51
2019-05-19T00:43:39.325Z,14.53
2019-05-19T00:46:09.058Z,14.51
2019-05-19T00:48:38.719Z,14.52
2019-05-19T00:51:08.882Z,14.50
2019-05-19T00:53:38.519Z,14.47
2019-05-19T00:56:08.376Z,14.46
2019-05-19T00:58:38.517Z,14.47
2019-05-19T01:01:08.277Z,14.48
2019-05-19T01:03:37.984Z,14.46
2019-05-19T01:06:08.194Z,14.47
2019-05-19T01:08:37.843Z,14.48
2019-05-19T01:11:07.630Z,14.52
2019-05-19T01:13:38.023Z,14.52
2019-05-19T01:16:07.661Z,14.53
2019-05-19T01:18:37.910Z,14.55
2019-05-19T01:21:07.706Z,14.54
2019-05-19T01:23:37.355Z,14.49
2019-05-19T01:26:07.038Z,14.50
2019-05-19T01:28:36.686Z,14.49
2019-05-19T01:31:07.936Z,14.50
2019-05-19T01:33:37.994Z,14.49
2019-05-19T01:36:07.715Z,14.51
2019-05-19T01:38:37.356Z,14.52
2019-05-19T01:41:07.044Z,14.53
2019-05-19T01:43:37.499Z,14.54
2019-05-19T01:46:07.178Z,14.56
2019-05-19T01:48:37.372Z,14.54
2019-05-19T01:51:06.991Z,14.53
2019-05-19T01:53:36.812Z,14.56
2019-05-19T01:56:07.349Z,14.61
2019-05-19T01:58:37.947Z,14.62
2019-05-19T02:01:07.987Z,14.64
2019-05-19T02:03:38.034Z,14.66
2019-05-19T02:06:07.755Z,14.70
2019-05-19T02:08:38.516Z,14.75
2019-05-19T02:11:08.311Z,14.79
2019-05-19T02:13:37.945Z,14.81
2019-05-19T02:16:07.725Z,14.81
2019-05-19T02:18:37.609Z,14.82
2019-05-19T02:21:07.375Z,14.81
2019-05-19T02:23:37.062Z,14.81
2019-05-19T02:26:06.818Z,14.75
2019-05-19T02:28:37.115Z,14.69
2019-05-19T02:31:07.137Z,14.66
2019-05-19T02:33:36.834Z,14.62
2019-05-19T02:36:06.474Z,14.57
2019-05-19T02:38:36.138Z,14.57
2019-05-19T02:41:06.533Z,14.57
2019-05-19T02:43:37.993Z,14.57
2019-05-19T02:46:08.002Z,14.58
2019-05-19T02:48:39.854Z,14.55
2019-05-19T02:51:12.001Z,14.56
2019-05-19T02:53:43.589Z,14.57
2019-05-19T02:56:14.395Z,14.57
2019-05-19T02:58:44.930Z,14.56
2019-05-19T03:01:14.573Z,14.54
2019-05-19T03:03:44.344Z,14.55
2019-05-19T03:06:14.226Z,14.56
2019-05-19T03:08:43.950Z,14.60
2019-05-19T03:11:13.605Z,14.62
2019-05-19T03:13:44.015Z,14.65
2019-05-19T03:16:13.780Z,14.67
2019-05-19T03:18:43.448Z,14.69
2019-05-19T03:21:13.097Z,14.71
2019-05-19T03:23:42.758Z,14.75
2019-05-19T03:26:12.427Z,14.76
2019-05-19T03:28:42.071Z,14.78
2019-05-19T03:31:13.369Z,14.81
2019-05-19T03:33:53.864Z,14.83
2019-05-19T03:36:23.547Z,14.83
2019-05-19T03:38:53.239Z,14.87
2019-05-19T03:41:23.001Z,14.88
2019-05-19T03:43:52.645Z,14.87
2019-05-19T03:46:25.143Z,14.86
2019-05-19T03:48:55.582Z,14.86
2019-05-19T03:51:30.745Z,14.88
2019-05-19T03:53:56.670Z,14.86
2019-05-19T03:56:26.356Z,14.85
2019-05-19T03:58:55.985Z,14.85
2019-05-19T04:01:25.637Z,14.85
2019-05-19T04:03:55.311Z,14.87
2019-05-19T04:06:25.850Z,14.91
2019-05-19T04:08:55.964Z,14.91
2019-05-19T04:11:25.638Z,14.93
2019-05-19T04:13:58.444Z,14.94
2019-05-19T04:16:28.092Z,14.94
2019-05-19T04:18:57.866Z,14.97
2019-05-19T04:21:38.823Z,14.99
2019-05-19T04:24:02.051Z,15.01
2019-05-19T04:26:31.745Z,15.01
2019-05-19T04:29:01.465Z,14.99
2019-05-19T04:31:31.163Z,14.97
2019-05-19T04:34:00.942Z,14.95
2019-05-19T04:36:30.678Z,14.94
2019-05-19T04:39:00.321Z,14.91
2019-05-19T04:41:29.981Z,14.88
2019-05-19T04:43:59.627Z,14.88
2019-05-19T04:46:29.261Z,14.90
2019-05-19T04:48:58.938Z,14.96
2019-05-19T04:51:28.768Z,15.00
2019-05-19T04:53:58.438Z,14.99
2019-05-19T04:56:28.812Z,14.99
2019-05-19T04:58:58.451Z,15.01
2019-05-19T05:01:30.127Z,15.03
2019-05-19T05:03:59.894Z,15.05
2019-05-19T05:06:29.641Z,15.09
2019-05-19T05:08:59.291Z,15.13
2019-05-19T05:11:29.000Z,15.15
2019-05-19T05:13:58.621Z,15.16
2019-05-19T05:16:28.258Z,15.23
2019-05-19T05:18:58.403Z,15.27
2019-05-19T05:21:28.203Z,15.30
2019-05-19T05:23:58.615Z,15.32
2019-05-19T05:26:28.312Z,15.35
2019-05-19T05:28:57.934Z,15.35
2019-05-19T05:31:27.739Z,15.38
2019-05-19T05:33:57.451Z,15.40
2019-05-19T05:36:27.926Z,15.43
2019-05-19T05:38:57.642Z,15.45
2019-05-19T05:41:27.295Z,15.47
2019-05-19T05:43:59.994Z,15.51
2019-05-19T05:46:29.659Z,15.53
2019-05-19T05:48:59.492Z,15.58
2019-05-19T05:51:29.137Z,15.63
2019-05-19T05:53:59.577Z,15.68
2019-05-19T05:56:29.522Z,15.68
2019-05-19T05:58:59.242Z,15.70
2019-05-19T06:01:28.986Z,15.71
2019-05-19T06:03:59.114Z,15.71
2019-05-19T06:06:28.822Z,15.72
2019-05-19T06:08:58.459Z,15.75
2019-05-19T06:11:28.126Z,15.76
2019-05-19T06:13:58.135Z,15.79
2019-05-19T06:16:27.842Z,15.84
2019-05-19T06:18:57.518Z,15.89
2019-05-19T06:21:27.169Z,15.94
2019-05-19T06:23:56.864Z,15.98
2019-05-19T06:26:26.822Z,16.02
2019-05-19T06:28:56.541Z,16.07
2019-05-19T06:31:26.195Z,16.11
2019-05-19T06:33:55.961Z,16.14
2019-05-19T06:36:25.675Z,16.17
2019-05-19T06:38:55.328Z,16.20
2019-05-19T06:41:25.014Z,16.25
2019-05-19T06:43:54.718Z,16.31
2019-05-19T06:46:24.380Z,16.38
2019-05-19T06:48:54.652Z,16.45
2019-05-19T06:51:25.838Z,16.52
2019-05-19T06:54:18.597Z,16.58
2019-05-19T06:56:48.537Z,16.62
2019-05-19T06:59:18.163Z,16.68
2019-05-19T07:01:47.828Z,16.73
2019-05-19T07:04:17.486Z,16.78
2019-05-19T07:06:48.565Z,16.82
2019-05-19T07:09:18.322Z,16.87
2019-05-19T07:11:47.963Z,16.91
2019-05-19T07:14:17.703Z,16.96
2019-05-19T07:16:47.376Z,17.00
2019-05-19T07:19:17.498Z,17.03
2019-05-19T07:21:47.963Z,17.08
2019-05-19T07:24:19.473Z,17.13
2019-05-19T07:26:49.231Z,17.18
2019-05-19T07:29:18.962Z,17.26
2019-05-19T07:31:48.874Z,17.30
2019-05-19T07:34:18.673Z,17.32
2019-05-19T07:36:48.331Z,17.34
2019-05-19T07:39:18.257Z,17.35
2019-05-19T07:41:47.877Z,17.36
2019-05-19T07:44:17.575Z,17.39
2019-05-19T07:46:49.645Z,17.41
2019-05-19T07:49:19.461Z,17.44
2019-05-19T07:51:52.257Z,17.45
2019-05-19T07:54:21.954Z,17.48
2019-05-19T07:56:51.797Z,17.47
2019-05-19T07:59:22.515Z,17.48
2019-05-19T08:01:52.463Z,17.47
2019-05-19T08:04:24.880Z,17.50
2019-05-19T08:06:54.517Z,17.51
2019-05-19T08:09:24.241Z,17.51
2019-05-19T08:11:58.861Z,17.51
2019-05-19T08:14:31.613Z,17.51
2019-05-19T08:17:01.210Z,17.53
2019-05-19T08:19:30.833Z,17.56
2019-05-19T08:22:00.882Z,17.58
2019-05-19T08:24:30.589Z,17.60
2019-05-19T08:27:00.465Z,17.62
2019-05-19T08:29:33.638Z,17.64
2019-05-19T08:32:07.494Z,17.66
2019-05-19T08:34:37.214Z,17.71
2019-05-19T08:37:06.929Z,17.72
2019-05-19T08:39:36.586Z,17.74
2019-05-19T08:42:06.269Z,17.76
2019-05-19T08:44:35.996Z,17.77
2019-05-19T08:47:05.696Z,17.74
2019-05-19T08:49:36.242Z,17.79
2019-05-19T08:52:06.104Z,17.82
2019-05-19T08:54:35.942Z,17.83
2019-05-19T08:57:05.570Z,17.81
2019-05-19T08:59:35.205Z,17.79
2019-05-19T09:02:04.979Z,17.79
2019-05-19T09:04:34.702Z,17.80
2019-05-19T09:07:04.299Z,17.78
2019-05-19T09:09:33.989Z,17.79
2019-05-19T09:12:03.740Z,17.82
2019-05-19T09:14:33.375Z,17.83
2019-05-19T09:17:03.349Z,17.85
2019-05-19T09:19:33.157Z,17.88
2019-05-19T09:22:02.803Z,17.89
2019-05-19T09:24:32.446Z,17.89
2019-05-19T09:27:02.091Z,17.88
2019-05-19T09:29:31.820Z,17.87
2019-05-19T09:32:01.551Z,17.87
2019-05-19T09:34:31.457Z,17.88
2019-05-19T09:37:01.082Z,17.90
2019-05-19T09:39:31.052Z,17.91
2019-05-19T09:42:02.468Z,17.90
2019-05-19T09:44:32.063Z,17.90
2019-05-19T09:47:01.723Z,17.89
2019-05-19T09:49:35.278Z,17.89
2019-05-19T09:52:06.849Z,17.87
2019-05-19T09:54:44.768Z,17.85
2019-05-19T09:57:09.036Z,17.84
2019-05-19T09:59:39.526Z,17.84
2019-05-19T10:02:09.193Z,17.85
2019-05-19T10:04:38.854Z,17.86
2019-05-19T10:07:10.665Z,17.89
2019-05-19T10:09:58.196Z,17.90
2019-05-19T10:12:28.266Z,17.91
2019-05-19T10:18:28.845Z,17.87
2019-05-19T10:21:01.454Z,17.96
2019-05-19T10:23:31.230Z,17.98
2019-05-19T10:26:02.562Z,17.97
2019-05-19T10:28:32.226Z,18.00
2019-05-19T10:31:01.906Z,18.01
2019-05-19T10:33:31.749Z,18.04
2019-05-19T10:36:01.391Z,18.07
2019-05-19T10:38:31.104Z,18.09
2019-05-19T10:41:00.774Z,18.15
2019-05-19T10:43:30.416Z,18.21
2019-05-19T10:46:00.230Z,18.25
2019-05-19T10:48:36.116Z,18.28
2019-05-19T10:51:05.760Z,18.30
2019-05-19T10:53:35.470Z,18.36
2019-05-19T10:56:11.578Z,18.40
2019-05-19T10:58:41.271Z,18.45
2019-05-19T11:01:17.647Z,18.53
2019-05-19T11:04:00.013Z,18.61
2019-05-19T11:06:29.821Z,18.69
2019-05-19T11:08:59.610Z,18.75
2019-05-19T11:11:41.463Z,18.79
2019-05-19T11:14:29.869Z,18.86
2019-05-19T11:17:12.642Z,18.92
2019-05-19T11:19:49.695Z,19.00
2019-05-19T11:22:25.050Z,19.06
2019-05-19T11:31:03.145Z,19.17
2019-05-19T11:36:55.858Z,19.22
2019-05-19T11:39:26.657Z,19.21
2019-05-19T11:41:58.236Z,19.19
2019-05-19T11:44:28.296Z,19.20
2019-05-19T11:46:59.133Z,19.18
2019-05-19T11:49:28.966Z,19.16
2019-05-19T11:51:58.807Z,19.13
2019-05-19T11:54:30.135Z,19.11
2019-05-19T11:57:04.721Z,19.08
2019-05-19T11:59:34.654Z,19.06
2019-05-19T12:02:05.690Z,19.01
2019-05-19T12:04:37.449Z,18.97
2019-05-19T12:07:07.173Z,18.95
2019-05-19T12:09:36.894Z,18.93
2019-05-19T12:12:06.528Z,18.93
2019-05-19T12:14:38.162Z,18.89
2019-05-19T12:17:08.126Z,18.84
2019-05-19T12:19:38.045Z,18.77
2019-05-19T12:22:07.721Z,18.72
2019-05-19T12:24:38.003Z,18.71
2019-05-19T12:27:07.664Z,18.69
2019-05-19T12:29:37.568Z,18.69
2019-05-19T12:32:07.292Z,18.69
2019-05-19T12:34:36.920Z,18.71
2019-05-19T12:37:06.588Z,18.70
2019-05-19T12:39:36.276Z,18.70
2019-05-19T12:42:05.909Z,18.69
2019-05-19T12:44:35.549Z,18.70
2019-05-19T12:47:05.362Z,18.67
2019-05-19T12:49:35.741Z,18.66
2019-05-19T12:52:05.377Z,18.66
2019-05-19T12:54:35.169Z,18.67
2019-05-19T12:57:06.465Z,18.69
2019-05-19T12:59:36.121Z,18.69
2019-05-19T13:02:05.836Z,18.71
2019-05-19T13:04:35.765Z,18.74
2019-05-19T13:07:08.702Z,18.76
2019-05-19T13:09:39.721Z,18.76
2019-05-19T13:12:09.648Z,18.77
2019-05-19T13:14:39.295Z,18.76
2019-05-19T13:17:09.091Z,18.76
2019-05-19T13:19:39.041Z,18.79
2019-05-19T13:22:08.830Z,18.77
2019-05-19T13:24:40.142Z,18.80
2019-05-19T13:27:09.876Z,18.84
2019-05-19T13:29:39.591Z,18.87
2019-05-19T13:32:09.357Z,18.88
2019-05-19T13:34:39.058Z,18.89
2019-05-19T13:37:08.714Z,18.90
2019-05-19T13:39:38.402Z,18.93
2019-05-19T13:42:08.097Z,18.93
2019-05-19T13:44:37.729Z,18.94
2019-05-19T13:47:07.427Z,18.96
2019-05-19T13:49:37.124Z,19.00
2019-05-19T13:52:07.033Z,19.04
2019-05-19T13:54:36.790Z,19.12
2019-05-19T13:57:12.176Z,19.22
2019-05-19T13:59:38.130Z,19.30
2019-05-19T14:02:07.820Z,19.39
2019-05-19T14:04:37.659Z,19.51
2019-05-19T14:07:08.648Z,19.59
2019-05-19T14:09:38.345Z,19.69
2019-05-19T14:12:07.984Z,19.72
2019-05-19T14:14:37.696Z,19.75
2019-05-19T14:17:07.414Z,19.79
2019-05-19T14:19:37.049Z,19.88
2019-05-19T14:22:06.794Z,20.05
2019-05-19T14:24:36.724Z,20.13
2019-05-19T14:27:06.368Z,20.10
2019-05-19T14:29:37.065Z,20.07
2019-05-19T14:32:07.165Z,20.01
2019-05-19T14:34:39.558Z,19.95
2019-05-19T14:37:09.184Z,19.89
2019-05-19T14:39:38.904Z,19.83
2019-05-19T14:42:10.202Z,19.80
2019-05-19T14:44:39.952Z,19.79
2019-05-19T14:47:09.651Z,19.72
2019-05-19T14:49:39.786Z,19.73
2019-05-19T14:52:10.154Z,19.71
2019-05-19T14:54:39.812Z,19.68
2019-05-19T14:57:09.452Z,19.64
2019-05-19T14:59:39.362Z,19.62
2019-05-19T15:02:09.057Z,19.63
2019-05-19T15:04:38.508Z,19.63
2019-05-19T15:07:08.137Z,19.63
2019-05-19T15:09:38.668Z,19.64
2019-05-19T15:12:08.311Z,19.65
2019-05-19T15:14:37.953Z,19.66
2019-05-19T15:17:07.791Z,19.70
2019-05-19T15:19:37.364Z,19.73
2019-05-19T15:22:07.008Z,19.73
2019-05-19T15:24:36.804Z,19.74
2019-05-19T15:27:06.462Z,19.78
2019-05-19T15:29:36.102Z,19.85
2019-05-19T15:32:05.767Z,19.86
2019-05-19T15:34:35.402Z,19.87
2019-05-19T15:37:05.292Z,19.84
2019-05-19T15:39:34.968Z,19.73
2019-05-19T15:42:04.621Z,19.69
2019-05-19T15:44:34.233Z,19.63
2019-05-19T15:47:04.040Z,19.53
2019-05-19T15:49:33.665Z,19.39
2019-05-19T15:52:05.386Z,19.27
2019-05-19T15:54:35.194Z,19.16
2019-05-19T15:57:04.910Z,19.07
2019-05-19T15:59:34.554Z,18.99
2019-05-19T16:02:04.341Z,18.95
2019-05-19T16:04:33.966Z,18.91
2019-05-19T16:07:05.145Z,18.87
2019-05-19T16:09:35.094Z,18.82
2019-05-19T16:12:04.769Z,18.79
2019-05-19T16:14:34.216Z,18.75
2019-05-19T16:17:06.383Z,18.71
2019-05-19T16:19:36.028Z,18.69
2019-05-19T16:22:05.678Z,18.65
2019-05-19T16:24:35.400Z,18.59
2019-05-19T16:27:05.057Z,18.54
2019-05-19T16:29:34.698Z,18.53
2019-05-19T16:32:04.486Z,18.54
2019-05-19T16:34:34.125Z,18.56
2019-05-19T16:37:03.941Z,18.59
2019-05-19T16:39:34.114Z,18.61
2019-05-19T16:42:03.840Z,18.61
2019-05-19T16:44:33.603Z,18.61
2019-05-19T16:47:03.342Z,18.62
2019-05-19T16:49:33.023Z,18.61
2019-05-19T16:52:02.768Z,18.59
2019-05-19T16:54:34.112Z,18.55
2019-05-19T16:57:03.755Z,18.53
2019-05-19T16:59:33.381Z,18.50
2019-05-19T17:02:03.145Z,18.46
2019-05-19T17:04:32.841Z,18.41
2019-05-19T17:07:05.837Z,18.41
2019-05-19T17:09:38.304Z,18.42
2019-05-19T17:12:10.433Z,18.41
2019-05-19T17:14:40.078Z,18.40
2019-05-19T17:17:09.800Z,18.39
2019-05-19T17:19:39.401Z,18.36
2019-05-19T17:22:09.036Z,18.33
2019-05-19T17:24:38.799Z,18.29
2019-05-19T17:27:10.122Z,18.25
2019-05-19T17:29:39.896Z,18.24
2019-05-19T17:32:09.740Z,18.23
2019-05-19T17:34:39.400Z,18.25
2019-05-19T17:37:09.047Z,18.25
2019-05-19T17:39:38.743Z,18.25
2019-05-19T17:42:08.392Z,18.25
2019-05-19T17:44:38.040Z,18.25
2019-05-19T17:47:07.738Z,18.27
2019-05-19T17:49:37.379Z,18.27
2019-05-19T17:52:07.079Z,18.25
2019-05-19T17:54:36.841Z,18.27
2019-05-19T17:57:06.727Z,18.27
2019-05-19T17:59:36.598Z,18.26
2019-05-19T18:02:06.529Z,18.31
2019-05-19T18:04:36.136Z,18.31
2019-05-19T18:07:05.800Z,18.31
2019-05-19T18:09:35.918Z,18.31
2019-05-19T18:12:05.633Z,18.31
2019-05-19T18:14:35.471Z,18.28
2019-05-19T18:17:05.161Z,18.26
2019-05-19T18:19:35.033Z,18.24
2019-05-19T18:22:04.750Z,18.24
2019-05-19T18:24:34.525Z,18.24
2019-05-19T18:27:04.654Z,18.24
2019-05-19T18:29:36.017Z,18.24
2019-05-19T18:32:05.815Z,18.24
2019-05-19T18:34:35.454Z,18.24
2019-05-19T18:37:05.151Z,18.22
2019-05-19T18:39:34.862Z,18.20
2019-05-19T18:45:46.350Z,18.22
2019-05-19T18:48:17.713Z,18.23
2019-05-19T18:50:48.967Z,18.25
2019-05-19T18:53:18.793Z,18.24
2019-05-19T18:55:48.507Z,18.22
2019-05-19T18:58:18.250Z,18.21
2019-05-19T19:00:48.111Z,18.17
2019-05-19T19:03:20.234Z,18.14
2019-05-19T19:05:51.736Z,18.12
2019-05-19T19:08:29.154Z,18.08
2019-05-19T19:10:58.928Z,18.04
2019-05-19T19:13:45.076Z,18.02
2019-05-19T19:16:11.061Z,17.98
2019-05-19T19:18:42.431Z,17.94
2019-05-19T19:21:12.221Z,17.90
2019-05-19T19:23:52.874Z,17.85
2019-05-19T19:26:24.571Z,17.80
2019-05-19T19:28:54.586Z,17.76
2019-05-19T19:31:24.695Z,17.74
2019-05-19T19:33:54.375Z,17.72
2019-05-19T19:36:24.494Z,17.70
2019-05-19T19:38:54.161Z,17.69
2019-05-19T19:41:23.817Z,17.63
2019-05-19T19:43:53.801Z,17.58
2019-05-19T19:46:25.090Z,17.56
2019-05-19T19:48:54.885Z,17.52
2019-05-19T19:51:24.545Z,17.51
2019-05-19T19:53:54.190Z,17.49
2019-05-19T19:56:23.838Z,17.48
2019-05-19T19:58:53.611Z,17.48
2019-05-19T20:01:23.241Z,17.47
2019-05-19T20:03:53.311Z,17.46
2019-05-19T20:06:23.000Z,17.47
2019-05-19T20:08:52.694Z,17.46
2019-05-19T20:11:22.341Z,17.44
2019-05-19T20:13:52.414Z,17.42
2019-05-19T20:16:29.001Z,17.41
2019-05-19T20:18:58.883Z,17.41
2019-05-19T20:21:28.571Z,17.41
2019-05-19T20:23:58.237Z,17.38
2019-05-19T20:26:30.977Z,17.37
2019-05-19T20:29:00.609Z,17.35
2019-05-19T20:31:31.533Z,17.31
2019-05-19T20:34:01.824Z,17.27
2019-05-19T20:36:31.470Z,17.24
2019-05-19T20:39:01.099Z,17.20
2019-05-19T20:41:30.843Z,17.21
2019-05-19T20:44:00.658Z,17.21
2019-05-19T20:46:30.338Z,17.21
2019-05-19T20:49:00.024Z,17.21
2019-05-19T20:51:31.338Z,17.24
2019-05-19T20:54:01.192Z,17.22
2019-05-19T20:56:30.978Z,17.20
2019-05-19T20:59:00.599Z,17.20
2019-05-19T21:01:31.756Z,17.17
2019-05-19T21:04:01.522Z,17.14
2019-05-19T21:06:31.166Z,17.13
2019-05-19T21:09:00.842Z,17.13
2019-05-19T21:11:30.503Z,17.10
2019-05-19T21:14:00.152Z,17.07
2019-05-19T21:16:29.945Z,17.01
2019-05-19T21:18:59.636Z,17.02
2019-05-19T21:21:29.282Z,17.00
2019-05-19T21:23:58.937Z,16.97
2019-05-19T21:26:28.599Z,16.97
2019-05-19T21:28:58.227Z,16.99
2019-05-19T21:31:27.866Z,16.97
2019-05-19T21:33:57.586Z,16.96
2019-05-19T21:36:27.236Z,16.93
2019-05-19T21:38:56.866Z,16.91
2019-05-19T21:41:26.574Z,16.90
2019-05-19T21:43:56.213Z,16.92
2019-05-19T21:46:25.855Z,16.91
2019-05-19T21:48:55.532Z,16.89
2019-05-19T21:51:25.171Z,16.86
2019-05-19T21:53:54.881Z,16.84
2019-05-19T21:56:24.562Z,16.83
2019-05-19T21:58:54.240Z,16.86
2019-05-19T22:01:24.269Z,16.83
2019-05-19T22:03:53.960Z,16.78
2019-05-19T22:06:25.259Z,16.76
2019-05-19T22:08:54.923Z,16.76
2019-05-19T22:11:24.622Z,16.79
2019-05-19T22:13:54.825Z,16.80
2019-05-19T22:16:24.463Z,16.79
2019-05-19T22:18:54.928Z,16.79
2019-05-19T22:21:24.566Z,16.78
2019-05-19T22:23:54.578Z,16.79
2019-05-19T22:26:24.262Z,16.80
2019-05-19T22:28:54.012Z,16.80
2019-05-19T22:31:36.302Z,16.80
2019-05-19T22:33:55.112Z,16.81
2019-05-19T22:36:24.778Z,16.83
2019-05-19T22:38:54.416Z,16.83
2019-05-19T22:41:26.543Z,16.88
2019-05-19T22:44:00.486Z,16.89
2019-05-19T22:46:30.183Z,16.84
2019-05-19T22:49:00.085Z,16.79
2019-05-19T22:51:29.760Z,16.74
2019-05-19T22:53:59.483Z,16.71
2019-05-19T22:56:29.129Z,16.72
2019-05-19T22:58:58.753Z,16.72
2019-05-19T23:01:28.475Z,16.71
2019-05-19T23:03:58.171Z,16.69
2019-05-19T23:06:27.804Z,16.68
2019-05-19T23:08:57.453Z,16.66
2019-05-19T23:11:27.154Z,16.58
2019-05-19T23:13:56.772Z,16.52
2019-05-19T23:16:26.687Z,16.53
2019-05-19T23:18:56.537Z,16.49
2019-05-19T23:21:26.190Z,16.50
2019-05-19T23:23:55.834Z,16.50
2019-05-19T23:26:25.618Z,16.50
2019-05-19T23:28:55.325Z,16.48
2019-05-19T23:31:24.960Z,16.47
2019-05-19T23:33:54.830Z,16.46
2019-05-19T23:36:24.473Z,16.43
2019-05-19T23:38:54.139Z,16.44
2019-05-19T23:41:24.102Z,16.46
2019-05-19T23:43:53.830Z,16.46
2019-05-19T23:46:23.492Z,16.47
2019-05-19T23:48:53.170Z,16.47
2019-05-19T23:51:23.075Z,16.44
2019-05-19T23:53:52.707Z,16.44
2019-05-19T23:56:22.442Z,16.46
2019-05-19T23:58:52.150Z,16.46
